Time;durP1;ratioP1;P1;durP2;ratioP2;P2;SDS_P1;SDS_P2;PMS_P1;PMS_P2;Temp;Humidity;BMP_temperature;BMP_pressure;BME280_temperature;BME280_humidity;BME280_pressure;Samples;Min_cycle;Max_cycle;Signal;HPM_P1;HPM_P2
2022/02/12 00:01:53;;;;;;;3.45;1.42;;;;;;;;;;4906044;28;20098;-70
2022/02/12 00:04:23;;;;;;;8.70;3.30;;;;;;;;;;4970084;28;20545;-71
2022/02/12 00:06:54;;;;;;;6.18;3.33;;;;;;;;;;4986598;28;20058;-71
2022/02/12 00:09:26;;;;;;;11.90;4.38;;;;;;;;;;4973272;28;20062;-70
2022/02/12 00:11:57;;;;;;;15.93;4.43;;;;;;;;;;4999945;28;20061;-70
2022/02/12 00:14:27;;;;;;;10.45;3.88;;;;;;;;;;5006357;28;20084;-71
2022/02/12 00:16:57;;;;;;;9.15;3.55;;;;;;;;;;4964172;28;20039;-70
2022/02/12 00:19:28;;;;;;;7.40;3.20;;;;;;;;;;4954226;28;20602;-70
2022/02/12 00:21:59;;;;;;;7.35;3.00;;;;;;;;;;4950794;28;20051;-70
2022/02/12 00:24:29;;;;;;;5.95;2.65;;;;;;;;;;4949301;28;20051;-69
2022/02/12 00:27:00;;;;;;;11.18;2.70;;;;;;;;;;4927681;29;20044;-71
2022/02/12 00:29:31;;;;;;;6.90;2.83;;;;;;;;;;4930758;29;20052;-71
2022/02/12 00:32:03;;;;;;;7.50;3.20;;;;;;;;;;4913349;29;20062;-68
2022/02/12 00:34:34;;;;;;;7.93;3.05;;;;;;;;;;4935980;29;20050;-71
2022/02/12 00:37:04;;;;;;;10.10;2.70;;;;;;;;;;4945700;28;20060;-71
2022/02/12 00:39:35;;;;;;;11.55;4.00;;;;;;;;;;4946736;28;20063;-70
2022/02/12 00:42:06;;;;;;;11.48;3.72;;;;;;;;;;4943594;28;20051;-70
2022/02/12 00:44:37;;;;;;;9.23;4.55;;;;;;;;;;4950831;28;20054;-70
2022/02/12 00:47:08;;;;;;;19.33;7.07;;;;;;;;;;4942674;28;20075;-71
2022/02/12 00:49:39;;;;;;;17.20;5.50;;;;;;;;;;4908998;29;20068;-70
2022/02/12 00:52:09;;;;;;;13.13;5.05;;;;;;;;;;4859165;29;20061;-71
2022/02/12 00:54:40;;;;;;;16.85;6.05;;;;;;;;;;4927977;28;20055;-70
2022/02/12 00:57:11;;;;;;;19.88;5.90;;;;;;;;;;4920650;28;20071;-69
2022/02/12 00:59:41;;;;;;;13.00;4.60;;;;;;;;;;4976675;28;20065;-70
2022/02/12 01:02:12;;;;;;;13.27;4.95;;;;;;;;;;4989668;28;20062;-69
2022/02/12 01:04:43;;;;;;;12.40;5.03;;;;;;;;;;4989835;28;20057;-69
2022/02/12 01:07:13;;;;;;;10.68;3.78;;;;;;;;;;4990186;28;20073;-70
2022/02/12 01:09:44;;;;;;;16.55;4.13;;;;;;;;;;4989622;28;20064;-70
2022/02/12 01:12:14;;;;;;;8.93;3.70;;;;;;;;;;4990470;28;20065;-69
2022/02/12 01:14:45;;;;;;;16.08;3.65;;;;;;;;;;4990362;28;20451;-68
2022/02/12 01:17:15;;;;;;;11.07;2.88;;;;;;;;;;4950979;29;20067;-69
2022/02/12 01:19:49;;;;;;;9.95;2.95;;;;;;;;;;4903416;29;20055;-69
2022/02/12 01:22:22;;;;;;;5.97;2.78;;;;;;;;;;4951370;29;20062;-69
2022/02/12 01:24:53;;;;;;;6.13;2.40;;;;;;;;;;4950242;29;20511;-69
2022/02/12 01:27:24;;;;;;;7.18;2.72;;;;;;;;;;4903800;29;20058;-69
2022/02/12 01:29:54;;;;;;;14.63;2.78;;;;;;;;;;4951089;29;20062;-69
2022/02/12 01:32:24;;;;;;;7.00;2.42;;;;;;;;;;4931517;29;20508;-69
2022/02/12 01:34:55;;;;;;;8.55;2.95;;;;;;;;;;4916285;29;20091;-69
2022/02/12 01:37:26;;;;;;;8.45;3.10;;;;;;;;;;4931734;29;20070;-69
2022/02/12 01:39:56;;;;;;;9.07;2.72;;;;;;;;;;4931333;29;20051;-69
2022/02/12 01:42:28;;;;;;;7.38;2.72;;;;;;;;;;4921960;29;20052;-69
2022/02/12 01:45:02;;;;;;;14.40;2.88;;;;;;;;;;4918379;28;20063;-69
2022/02/12 01:47:33;;;;;;;10.30;2.70;;;;;;;;;;4918523;28;20051;-69
2022/02/12 01:50:04;;;;;;;10.38;3.33;;;;;;;;;;4920014;28;20066;-69
2022/02/12 01:52:36;;;;;;;6.72;2.65;;;;;;;;;;4950961;28;20494;-69
2022/02/12 01:55:07;;;;;;;8.85;2.72;;;;;;;;;;4952760;28;20053;-69
2022/02/12 01:57:38;;;;;;;12.65;2.80;;;;;;;;;;4922251;28;20062;-70
2022/02/12 02:00:11;;;;;;;10.43;2.88;;;;;;;;;;4969833;28;20609;-69
2022/02/12 02:02:42;;;;;;;10.68;3.28;;;;;;;;;;4924791;28;20062;-69
2022/02/12 02:05:15;;;;;;;14.18;3.72;;;;;;;;;;4941432;28;20396;-70
2022/02/12 02:07:47;;;;;;;11.95;4.53;;;;;;;;;;4989072;28;20066;-69
2022/02/12 02:10:17;;;;;;;12.55;3.90;;;;;;;;;;4988673;28;20057;-69
2022/02/12 02:12:47;;;;;;;13.23;3.67;;;;;;;;;;4989244;28;20062;-70
2022/02/12 02:15:18;;;;;;;13.13;3.88;;;;;;;;;;4918210;29;20062;-69
2022/02/12 02:17:49;;;;;;;7.63;3.00;;;;;;;;;;4949921;29;20058;-69
2022/02/12 02:20:19;;;;;;;10.90;2.95;;;;;;;;;;4946447;29;20087;-69
2022/02/12 02:22:57;;;;;;;10.35;3.40;;;;;;;;;;4931456;29;20067;-70
2022/02/12 02:25:28;;;;;;;8.38;2.97;;;;;;;;;;4898678;29;20114;-69
2022/02/12 02:27:58;;;;;;;6.78;2.83;;;;;;;;;;4931085;29;20071;-69
2022/02/12 02:30:30;;;;;;;8.50;3.15;;;;;;;;;;4914928;29;20056;-69
2022/02/12 02:33:00;;;;;;;10.13;2.80;;;;;;;;;;4942610;29;20055;-69
2022/02/12 02:35:30;;;;;;;11.65;2.83;;;;;;;;;;4949757;29;20059;-69
2022/02/12 02:38:08;;;;;;;11.00;2.67;;;;;;;;;;4949474;29;20055;-69
2022/02/12 02:40:39;;;;;;;7.32;2.70;;;;;;;;;;4949924;29;20066;-69
2022/02/12 02:43:10;;;;;;;6.03;2.30;;;;;;;;;;4949634;29;20431;-69
2022/02/12 02:45:40;;;;;;;9.18;2.85;;;;;;;;;;4949646;29;20071;-70
2022/02/12 02:48:10;;;;;;;10.18;2.72;;;;;;;;;;4950121;29;20058;-69
2022/02/12 02:56:20;;;;;;;11.70;3.05;;;;;;;;;;4918037;28;20063;-69
2022/02/12 02:58:59;;;;;;;11.68;3.58;;;;;;;;;;4979509;28;20061;-69
2022/02/12 03:01:30;;;;;;;10.60;3.38;;;;;;;;;;4988008;28;20065;-69
2022/02/12 03:04:01;;;;;;;11.63;3.63;;;;;;;;;;4940255;28;20061;-69
2022/02/12 03:06:33;;;;;;;12.98;3.47;;;;;;;;;;4988512;28;20046;-70
2022/02/12 03:09:03;;;;;;;9.70;3.33;;;;;;;;;;4988030;28;20062;-70
2022/02/12 03:11:33;;;;;;;6.70;2.33;;;;;;;;;;4988130;28;20066;-69
2022/02/12 03:14:04;;;;;;;7.15;2.30;;;;;;;;;;4988105;28;20546;-68
2022/02/12 03:16:36;;;;;;;10.88;2.55;;;;;;;;;;4939874;28;20061;-69
2022/02/12 03:19:06;;;;;;;4.90;2.60;;;;;;;;;;4988091;28;20054;-69
2022/02/12 03:21:37;;;;;;;10.05;2.55;;;;;;;;;;4909301;28;20058;-69
2022/02/12 03:24:07;;;;;;;9.23;2.33;;;;;;;;;;4987295;28;20619;-69
2022/02/12 03:26:38;;;;;;;11.93;3.15;;;;;;;;;;4949103;29;20098;-69
2022/02/12 03:29:08;;;;;;;10.88;3.30;;;;;;;;;;4949740;29;20626;-68
2022/02/12 03:31:38;;;;;;;10.68;3.60;;;;;;;;;;4932988;29;20070;-69
2022/02/12 03:34:09;;;;;;;15.73;3.85;;;;;;;;;;4949458;29;20059;-69
2022/02/12 03:36:39;;;;;;;8.68;3.35;;;;;;;;;;4933494;29;20067;-69
2022/02/12 03:39:09;;;;;;;10.27;2.80;;;;;;;;;;4910417;29;20389;-69
2022/02/12 03:41:39;;;;;;;8.60;2.75;;;;;;;;;;4895923;29;20056;-68
2022/02/12 03:44:10;;;;;;;8.02;2.15;;;;;;;;;;4911004;29;20477;-68
2022/02/12 03:46:40;;;;;;;7.57;2.50;;;;;;;;;;4910856;29;20052;-69
2022/02/12 03:49:11;;;;;;;6.07;2.20;;;;;;;;;;4907225;29;20056;-69
2022/02/12 03:51:40;;;;;;;5.50;2.38;;;;;;;;;;4861068;29;20533;-69
2022/02/12 03:54:11;;;;;;;9.77;2.42;;;;;;;;;;4857359;29;20060;-69
2022/02/12 03:56:42;;;;;;;7.18;2.40;;;;;;;;;;4873740;29;20053;-69
2022/02/12 03:59:12;;;;;;;7.97;2.10;;;;;;;;;;4873487;29;20053;-69
2022/02/12 04:01:42;;;;;;;8.60;1.95;;;;;;;;;;4857387;29;20076;-69
2022/02/12 04:04:13;;;;;;;5.70;2.30;;;;;;;;;;4897280;29;20064;-69
2022/02/12 04:06:43;;;;;;;8.02;2.42;;;;;;;;;;4893241;29;20056;-69
2022/02/12 04:09:14;;;;;;;7.80;3.15;;;;;;;;;;4895769;29;20056;-69
2022/02/12 04:11:43;;;;;;;8.93;3.17;;;;;;;;;;4873710;29;20069;-70
2022/02/12 04:14:14;;;;;;;11.48;3.42;;;;;;;;;;4850899;29;20060;-68
2022/02/12 04:16:44;;;;;;;9.55;3.50;;;;;;;;;;4882092;29;20484;-70
2022/02/12 04:19:15;;;;;;;11.40;3.00;;;;;;;;;;4891366;29;20064;-70
2022/02/12 04:21:45;;;;;;;6.68;2.88;;;;;;;;;;4890748;29;20742;-69
2022/02/12 04:24:15;;;;;;;7.10;2.70;;;;;;;;;;4890919;29;20057;-69
2022/02/12 04:26:45;;;;;;;9.90;2.55;;;;;;;;;;4900963;29;20469;-68
2022/02/12 04:29:15;;;;;;;4.63;2.38;;;;;;;;;;4913975;29;20083;-69
2022/02/12 04:31:45;;;;;;;4.25;2.10;;;;;;;;;;4922667;29;20060;-69
2022/02/12 04:34:16;;;;;;;3.95;1.83;;;;;;;;;;4933135;29;20471;-69
2022/02/12 04:36:47;;;;;;;6.20;2.15;;;;;;;;;;4932826;29;20060;-69
2022/02/12 04:39:18;;;;;;;7.22;1.90;;;;;;;;;;4886236;29;20058;-69
2022/02/12 04:41:48;;;;;;;6.60;1.80;;;;;;;;;;4932787;29;20067;-69
2022/02/12 04:44:19;;;;;;;7.05;2.55;;;;;;;;;;4901214;29;20431;-69
2022/02/12 04:46:49;;;;;;;7.53;2.22;;;;;;;;;;4934092;29;20184;-70
2022/02/12 04:49:22;;;;;;;7.43;2.70;;;;;;;;;;4961416;28;20075;-69
2022/02/12 04:51:52;;;;;;;7.90;3.67;;;;;;;;;;5001073;28;20061;-68
2022/02/12 04:54:23;;;;;;;13.48;3.45;;;;;;;;;;4997930;28;20049;-69
2022/02/12 04:56:53;;;;;;;12.27;3.95;;;;;;;;;;5032718;28;20053;-69
2022/02/12 04:59:24;;;;;;;8.70;3.50;;;;;;;;;;4996975;28;20065;-69
2022/02/12 05:01:55;;;;;;;10.00;3.35;;;;;;;;;;4990217;28;20054;-71
2022/02/12 05:04:25;;;;;;;6.80;3.50;;;;;;;;;;4990553;28;20059;-70
2022/02/12 05:06:56;;;;;;;10.13;3.17;;;;;;;;;;4941615;28;20555;-69
2022/02/12 05:09:26;;;;;;;5.80;2.05;;;;;;;;;;4970865;28;20043;-69
2022/02/12 05:11:57;;;;;;;11.25;2.30;;;;;;;;;;4970805;28;20062;-69
2022/02/12 05:14:31;;;;;;;4.82;1.90;;;;;;;;;;4970328;28;20069;-69
2022/02/12 05:17:03;;;;;;;6.63;2.30;;;;;;;;;;4970610;28;20058;-69
2022/02/12 05:19:33;;;;;;;5.13;2.33;;;;;;;;;;4969799;28;20431;-69
2022/02/12 05:22:03;;;;;;;7.88;2.45;;;;;;;;;;4970221;28;20058;-69
2022/02/12 05:24:34;;;;;;;8.75;3.05;;;;;;;;;;4970640;28;20058;-69
2022/02/12 05:27:04;;;;;;;10.25;2.90;;;;;;;;;;4970848;28;20065;-69
2022/02/12 05:29:36;;;;;;;8.38;2.72;;;;;;;;;;4970153;28;20054;-69
2022/02/12 05:32:06;;;;;;;6.22;2.70;;;;;;;;;;4972189;28;20410;-70
2022/02/12 05:34:37;;;;;;;7.50;3.13;;;;;;;;;;4989786;28;20051;-69
2022/02/12 05:37:07;;;;;;;8.90;2.97;;;;;;;;;;4989661;28;20060;-70
2022/02/12 05:39:38;;;;;;;6.57;2.58;;;;;;;;;;4934376;29;20054;-70
2022/02/12 05:42:08;;;;;;;8.68;3.00;;;;;;;;;;4950687;29;20066;-69
2022/02/12 05:44:38;;;;;;;9.15;2.58;;;;;;;;;;4950516;29;20063;-69
2022/02/12 05:47:09;;;;;;;9.90;3.40;;;;;;;;;;4971613;28;20674;-69
2022/02/12 05:49:42;;;;;;;9.20;4.35;;;;;;;;;;4912554;29;20056;-69
2022/02/12 05:52:13;;;;;;;9.13;3.45;;;;;;;;;;4912040;29;20075;-69
2022/02/12 05:54:43;;;;;;;7.57;2.75;;;;;;;;;;4912784;29;20535;-69
2022/02/12 05:57:13;;;;;;;11.80;3.22;;;;;;;;;;4874712;29;20053;-69
2022/02/12 05:59:44;;;;;;;7.35;3.05;;;;;;;;;;4874480;29;20063;-69
2022/02/12 06:02:14;;;;;;;5.20;2.45;;;;;;;;;;4856131;29;20068;-69
2022/02/12 06:04:44;;;;;;;11.68;3.85;;;;;;;;;;4856044;29;20065;-69
2022/02/12 06:07:14;;;;;;;12.60;3.65;;;;;;;;;;4855605;29;20502;-69
2022/02/12 06:09:45;;;;;;;12.25;3.80;;;;;;;;;;4856142;29;20414;-69
2022/02/12 06:12:15;;;;;;;10.30;3.55;;;;;;;;;;4856416;29;20072;-70
2022/02/12 06:14:45;;;;;;;15.43;3.70;;;;;;;;;;4880028;29;20063;-70
2022/02/12 06:17:16;;;;;;;9.88;3.33;;;;;;;;;;4878245;29;20413;-69
2022/02/12 06:19:46;;;;;;;15.35;3.00;;;;;;;;;;4892115;29;20056;-69
2022/02/12 06:22:17;;;;;;;8.60;2.95;;;;;;;;;;4896545;29;20074;-67
2022/02/12 06:24:47;;;;;;;11.68;3.13;;;;;;;;;;4911579;29;20052;-69
2022/02/12 06:27:17;;;;;;;9.90;3.80;;;;;;;;;;4912244;29;20071;-69
2022/02/12 06:29:47;;;;;;;13.10;3.17;;;;;;;;;;4929603;29;20063;-70
2022/02/12 06:32:18;;;;;;;10.73;3.67;;;;;;;;;;4934058;29;20062;-70
2022/02/12 06:34:50;;;;;;;10.55;3.25;;;;;;;;;;4958471;28;20058;-70
2022/02/12 06:37:20;;;;;;;;;;;;;;;;;;4931124;28;20058;-70
2022/02/12 06:39:50;;;;;;;7.82;3.35;;;;;;;;;;4982234;28;19929;-70
2022/02/12 06:42:20;;;;;;;6.50;2.60;;;;;;;;;;5007933;28;20414;-70
2022/02/12 06:44:51;;;;;;;10.90;2.80;;;;;;;;;;5008339;28;20064;-69
2022/02/12 06:47:22;;;;;;;8.25;2.60;;;;;;;;;;5008644;28;20058;-69
2022/02/12 06:49:52;;;;;;;7.40;2.58;;;;;;;;;;5007958;28;20087;-69
2022/02/12 06:52:23;;;;;;;8.00;2.50;;;;;;;;;;4992286;28;20050;-69
2022/02/12 06:54:54;;;;;;;7.15;3.00;;;;;;;;;;5008156;28;20046;-69
2022/02/12 06:57:24;;;;;;;6.03;2.50;;;;;;;;;;4998210;28;20058;-69
2022/02/12 06:59:55;;;;;;;8.77;2.83;;;;;;;;;;4975843;28;20057;-69
2022/02/12 07:02:25;;;;;;;6.65;3.00;;;;;;;;;;5008186;28;20081;-70
2022/02/12 07:04:57;;;;;;;11.75;3.15;;;;;;;;;;5007448;28;20121;-69
2022/02/12 07:07:28;;;;;;;7.82;2.90;;;;;;;;;;5007858;28;20050;-69
2022/02/12 07:09:58;;;;;;;8.55;2.50;;;;;;;;;;4992025;28;20057;-69
2022/02/12 07:12:28;;;;;;;6.88;2.80;;;;;;;;;;5007766;28;20092;-70
2022/02/12 07:14:59;;;;;;;9.38;2.78;;;;;;;;;;5008171;28;20053;-70
2022/02/12 07:17:29;;;;;;;8.93;3.38;;;;;;;;;;4992241;28;20506;-69
2022/02/12 07:20:05;;;;;;;6.93;2.88;;;;;;;;;;4972069;28;20051;-70
2022/02/12 07:22:36;;;;;;;11.98;2.85;;;;;;;;;;4988018;28;20054;-69
2022/02/12 07:25:07;;;;;;;6.07;2.22;;;;;;;;;;4971179;28;20447;-69
2022/02/12 07:27:38;;;;;;;5.35;2.10;;;;;;;;;;4987600;28;20648;-69
2022/02/12 07:30:12;;;;;;;10.60;2.85;;;;;;;;;;4988030;28;20058;-69
2022/02/12 07:32:44;;;;;;;5.95;2.60;;;;;;;;;;4988267;28;20054;-70
2022/02/12 07:35:14;;;;;;;11.38;3.70;;;;;;;;;;4987278;28;20070;-69
2022/02/12 07:37:47;;;;;;;5.85;2.55;;;;;;;;;;4972419;28;20069;-69
2022/02/12 07:40:19;;;;;;;7.30;2.97;;;;;;;;;;4963397;28;20066;-69
2022/02/12 07:42:50;;;;;;;5.10;2.60;;;;;;;;;;4942645;28;20196;-68
2022/02/12 07:45:20;;;;;;;9.57;3.05;;;;;;;;;;4991975;28;20134;-68
2022/02/12 07:47:54;;;;;;;5.55;2.30;;;;;;;;;;4943242;28;20050;-69
2022/02/12 07:50:24;;;;;;;10.85;3.22;;;;;;;;;;4991366;28;20089;-69
2022/02/12 07:52:55;;;;;;;6.40;2.55;;;;;;;;;;4992266;28;20062;-69
2022/02/12 07:55:25;;;;;;;4.75;2.47;;;;;;;;;;4991512;28;20446;-69
2022/02/12 07:57:55;;;;;;;9.48;2.90;;;;;;;;;;5004330;28;20069;-68
2022/02/12 08:00:26;;;;;;;5.88;2.50;;;;;;;;;;5013837;28;20045;-69
2022/02/12 08:02:57;;;;;;;4.95;2.40;;;;;;;;;;4972109;28;20050;-69
2022/02/12 08:05:27;;;;;;;9.85;2.60;;;;;;;;;;4971623;28;20070;-69
2022/02/12 08:08:01;;;;;;;5.93;2.40;;;;;;;;;;4972309;28;20066;-69
2022/02/12 08:13:21;;;;;;;7.47;2.30;;;;;;;;;;4971865;28;20407;-69
2022/02/12 08:15:50;;;;;;;7.32;2.75;;;;;;;;;;4940047;28;20225;-69
2022/02/12 08:18:22;;;;;;;9.32;2.75;;;;;;;;;;4971092;28;20054;-68
2022/02/12 08:20:53;;;;;;;6.13;2.60;;;;;;;;;;4940841;28;20062;-69
2022/02/12 08:23:23;;;;;;;8.45;3.22;;;;;;;;;;4971854;28;20058;-68
2022/02/12 08:25:53;;;;;;;8.63;3.03;;;;;;;;;;4951971;28;20055;-68
2022/02/12 08:28:23;;;;;;;10.02;3.95;;;;;;;;;;4952626;28;20070;-68
2022/02/12 08:30:55;;;;;;;11.25;4.03;;;;;;;;;;4952397;28;20055;-67
2022/02/12 08:33:26;;;;;;;12.40;3.35;;;;;;;;;;4951939;28;20063;-68
2022/02/12 08:35:56;;;;;;;8.32;3.25;;;;;;;;;;4929564;29;20424;-68
2022/02/12 08:38:27;;;;;;;13.18;3.53;;;;;;;;;;4914331;29;20072;-68
2022/02/12 08:40:57;;;;;;;14.60;3.70;;;;;;;;;;4891252;29;20051;-68
2022/02/12 08:43:28;;;;;;;10.32;3.15;;;;;;;;;;4967959;28;20412;-68
2022/02/12 08:46:00;;;;;;;9.50;3.13;;;;;;;;;;4951969;29;20193;-69
2022/02/12 08:48:31;;;;;;;11.88;3.28;;;;;;;;;;4951760;29;20055;-69
2022/02/12 08:51:04;;;;;;;6.88;2.47;;;;;;;;;;4952125;29;20070;-68
2022/02/12 08:53:36;;;;;;;6.03;2.50;;;;;;;;;;4919957;29;20062;-69
2022/02/12 08:56:06;;;;;;;6.97;2.33;;;;;;;;;;4951493;29;20047;-69
2022/02/12 08:58:36;;;;;;;5.90;2.60;;;;;;;;;;4932751;29;20056;-69
2022/02/12 09:01:06;;;;;;;6.80;2.67;;;;;;;;;;4932686;29;20055;-68
2022/02/12 09:03:37;;;;;;;7.07;2.92;;;;;;;;;;4942748;29;20051;-69
2022/02/12 09:06:08;;;;;;;5.63;2.88;;;;;;;;;;4951803;29;20047;-69
2022/02/12 09:08:38;;;;;;;7.10;3.50;;;;;;;;;;4951480;29;20051;-69
2022/02/12 09:11:10;;;;;;;6.53;2.90;;;;;;;;;;4951094;29;20082;-68
2022/02/12 09:13:41;;;;;;;6.32;2.88;;;;;;;;;;4924553;28;20062;-69
2022/02/12 09:16:11;;;;;;;9.25;2.55;;;;;;;;;;4990183;28;20054;-69
2022/02/12 09:18:42;;;;;;;6.05;2.60;;;;;;;;;;4970026;28;20106;-68
2022/02/12 09:21:12;;;;;;;6.03;3.00;;;;;;;;;;4913244;29;20503;-68
2022/02/12 09:23:43;;;;;;;7.60;3.05;;;;;;;;;;4912743;29;20060;-69
2022/02/12 09:26:14;;;;;;;6.45;2.40;;;;;;;;;;4912584;29;20060;-68
2022/02/12 09:28:44;;;;;;;9.45;3.03;;;;;;;;;;4913411;29;20052;-68
2022/02/12 09:31:16;;;;;;;6.75;3.30;;;;;;;;;;4913076;29;20064;-67
2022/02/12 09:33:47;;;;;;;10.18;3.33;;;;;;;;;;4912509;29;20571;-68
2022/02/12 09:36:17;;;;;;;12.32;3.00;;;;;;;;;;4895065;29;20083;-69
2022/02/12 09:38:48;;;;;;;8.55;3.05;;;;;;;;;;4913323;29;20056;-68
2022/02/12 09:41:23;;;;;;;7.07;2.72;;;;;;;;;;4912492;29;20060;-68
2022/02/12 09:43:56;;;;;;;14.00;3.45;;;;;;;;;;4913068;29;20090;-68
2022/02/12 09:46:32;;;;;;;9.30;3.20;;;;;;;;;;4912831;29;20135;-68
2022/02/12 09:49:03;;;;;;;8.23;2.85;;;;;;;;;;4912672;29;20064;-69
2022/02/12 09:51:35;;;;;;;11.38;2.97;;;;;;;;;;4919394;28;20062;-68
2022/02/12 09:54:07;;;;;;;6.15;2.33;;;;;;;;;;4936403;29;20544;-68
2022/02/12 09:56:41;;;;;;;6.18;2.45;;;;;;;;;;4923896;29;20048;-67
2022/02/12 09:59:11;;;;;;;8.38;2.70;;;;;;;;;;4941368;29;20514;-67
2022/02/12 10:01:41;;;;;;;6.88;2.45;;;;;;;;;;4939653;29;20062;-68
2022/02/12 10:04:16;;;;;;;10.48;2.67;;;;;;;;;;4883339;29;20063;-67
2022/02/12 10:06:48;;;;;;;6.38;2.92;;;;;;;;;;4899789;29;20060;-68
2022/02/12 10:09:18;;;;;;;6.93;3.70;;;;;;;;;;4900232;29;20063;-68
2022/02/12 10:11:50;;;;;;;10.88;3.85;;;;;;;;;;4940969;29;20164;-67
2022/02/12 10:14:23;;;;;;;;;;;;;;;;;;4894621;29;20039;-68
2022/02/12 10:17:02;;;;;;;7.00;3.50;;;;;;;;;;4932692;29;19923;-68
2022/02/12 10:19:44;;;;;;;14.27;4.22;;;;;;;;;;4905180;29;20131;-68
2022/02/12 10:22:18;;;;;;;11.20;4.88;;;;;;;;;;4911210;29;20047;-69
2022/02/12 10:24:54;;;;;;;11.45;5.03;;;;;;;;;;4930358;29;20055;-68
2022/02/12 10:27:26;;;;;;;10.85;5.20;;;;;;;;;;4916890;29;20059;-69
2022/02/12 10:30:02;;;;;;;12.90;5.55;;;;;;;;;;4912131;29;20052;-68
2022/02/12 10:32:33;;;;;;;15.63;5.70;;;;;;;;;;4911885;29;20067;-67
2022/02/12 10:35:09;;;;;;;8.85;4.80;;;;;;;;;;4969137;28;20050;-67
2022/02/12 10:37:47;;;;;;;9.88;5.20;;;;;;;;;;4969221;28;20049;-68
2022/02/12 10:40:17;;;;;;;10.13;4.55;;;;;;;;;;4922362;28;20050;-67
2022/02/12 10:42:51;;;;;;;11.38;4.90;;;;;;;;;;4921294;28;20420;-67
2022/02/12 10:45:22;;;;;;;11.05;5.28;;;;;;;;;;4937277;28;20063;-67
2022/02/12 10:47:53;;;;;;;12.05;4.53;;;;;;;;;;4969004;28;20062;-67
2022/02/12 10:50:30;;;;;;;9.25;4.20;;;;;;;;;;4953932;28;20065;-68
2022/02/12 10:53:07;;;;;;;11.98;4.50;;;;;;;;;;4941288;28;20062;-68
2022/02/12 10:55:38;;;;;;;10.55;3.88;;;;;;;;;;4956511;28;20421;-68
2022/02/12 10:58:12;;;;;;;9.73;3.28;;;;;;;;;;4988889;28;20050;-67
2022/02/12 11:00:43;;;;;;;4.75;2.47;;;;;;;;;;4956045;28;20054;-67
2022/02/12 11:03:16;;;;;;;8.68;2.90;;;;;;;;;;4936024;28;20054;-68
2022/02/12 11:05:52;;;;;;;10.05;2.85;;;;;;;;;;4968729;28;20065;-67
2022/02/12 11:08:25;;;;;;;7.35;2.20;;;;;;;;;;4906513;28;20055;-68
2022/02/12 11:10:57;;;;;;;4.45;2.40;;;;;;;;;;4968939;28;20073;-67
2022/02/12 11:13:29;;;;;;;8.40;2.70;;;;;;;;;;4968664;28;20054;-68
2022/02/12 11:16:00;;;;;;;5.30;2.03;;;;;;;;;;4982751;28;20617;-69
2022/02/12 11:18:30;;;;;;;8.20;2.35;;;;;;;;;;4988203;28;20057;-69
2022/02/12 11:21:01;;;;;;;5.28;2.10;;;;;;;;;;4992932;28;20061;-69
2022/02/12 11:23:32;;;;;;;11.27;2.33;;;;;;;;;;4974012;28;20045;-69
2022/02/12 11:26:04;;;;;;;5.13;2.10;;;;;;;;;;5007815;28;20537;-69
2022/02/12 11:28:41;;;;;;;6.85;2.40;;;;;;;;;;4975616;28;20081;-69
2022/02/12 11:31:24;;;;;;;5.63;2.42;;;;;;;;;;5007369;28;20050;-69
2022/02/12 11:34:17;;;;;;;11.45;2.42;;;;;;;;;;5007887;28;20074;-69
2022/02/12 11:36:47;;;;;;;5.95;2.38;;;;;;;;;;5007881;28;20050;-69
2022/02/12 11:39:28;;;;;;;4.80;2.22;;;;;;;;;;4958604;28;20054;-69
2022/02/12 11:42:04;;;;;;;5.38;1.83;;;;;;;;;;4963340;28;20057;-69
2022/02/12 11:44:48;;;;;;;6.07;2.28;;;;;;;;;;4995153;28;20058;-70
2022/02/12 11:47:23;;;;;;;7.05;2.20;;;;;;;;;;5029415;28;20045;-70
2022/02/12 11:50:16;;;;;;;4.68;2.05;;;;;;;;;;5030150;28;20046;-69
2022/02/12 11:52:47;;;;;;;3.05;1.75;;;;;;;;;;5007396;28;20050;-69
2022/02/12 11:55:33;;;;;;;4.88;1.98;;;;;;;;;;5006528;28;20586;-69
2022/02/12 11:58:04;;;;;;;3.80;1.92;;;;;;;;;;4940239;28;20061;-69
2022/02/12 12:00:35;;;;;;;4.47;1.90;;;;;;;;;;4987696;28;20057;-69
2022/02/12 12:03:07;;;;;;;2.97;1.90;;;;;;;;;;4939681;28;20047;-69
2022/02/12 12:05:38;;;;;;;7.43;2.00;;;;;;;;;;4955146;28;20111;-70
2022/02/12 12:08:12;;;;;;;5.63;2.03;;;;;;;;;;4932607;29;20059;-70
2022/02/12 12:10:51;;;;;;;8.57;2.33;;;;;;;;;;4918103;29;20082;-70
2022/02/12 12:13:26;;;;;;;5.03;2.00;;;;;;;;;;4949021;29;20673;-70
2022/02/12 12:15:58;;;;;;;4.43;2.25;;;;;;;;;;4948614;29;20051;-69
2022/02/12 12:18:44;;;;;;;5.88;2.20;;;;;;;;;;4946438;29;20067;-70
2022/02/12 12:21:18;;;;;;;3.67;2.13;;;;;;;;;;4913674;29;20208;-70
2022/02/12 12:23:59;;;;;;;6.72;2.20;;;;;;;;;;4952757;28;20442;-70
2022/02/12 12:26:40;;;;;;;3.53;2.08;;;;;;;;;;4963985;28;20103;-70
2022/02/12 12:32:03;;;;;;;6.22;2.65;;;;;;;;;;4913891;29;20574;-70
2022/02/12 12:34:34;;;;;;;5.75;2.25;;;;;;;;;;4902455;29;20064;-69
2022/02/12 12:37:05;;;;;;;8.70;2.40;;;;;;;;;;4914023;29;20067;-71
2022/02/12 12:39:37;;;;;;;6.38;2.33;;;;;;;;;;4936848;29;20059;-71
2022/02/12 12:42:17;;;;;;;;;;;;;;;;;;4952968;29;20066;-71
2022/02/12 12:45:11;;;;;;;4.03;2.20;;;;;;;;;;4951463;29;19934;-70
2022/02/12 12:47:53;;;;;;;7.75;2.60;;;;;;;;;;4952141;29;20047;-70
2022/02/12 12:50:24;;;;;;;4.85;2.25;;;;;;;;;;4920433;29;20067;-70
2022/02/12 12:53:03;;;;;;;4.57;2.42;;;;;;;;;;4919803;29;20760;-70
2022/02/12 12:55:34;;;;;;;3.35;1.95;;;;;;;;;;4919688;29;20063;-69
2022/02/12 12:58:14;;;;;;;11.25;2.55;;;;;;;;;;4920420;29;20062;-70
2022/02/12 13:00:45;;;;;;;5.90;2.10;;;;;;;;;;4951547;29;20050;-70
2022/02/12 13:03:16;;;;;;;4.65;2.40;;;;;;;;;;4951983;29;20066;-71
2022/02/12 13:05:46;;;;;;;4.50;2.38;;;;;;;;;;4951943;29;20062;-70
2022/02/12 13:08:17;;;;;;;7.38;2.58;;;;;;;;;;4951573;29;20133;-71
2022/02/12 13:10:49;;;;;;;4.88;1.85;;;;;;;;;;4941501;28;20062;-72
2022/02/12 13:13:21;;;;;;;5.72;2.20;;;;;;;;;;4992852;28;20077;-71
2022/02/12 13:15:52;;;;;;;4.30;1.80;;;;;;;;;;4992591;28;20058;-74
2022/02/12 13:18:32;;;;;;;5.22;1.92;;;;;;;;;;4942843;28;20482;-70
2022/02/12 13:21:12;;;;;;;4.45;1.70;;;;;;;;;;4971135;28;20050;-71
2022/02/12 13:23:46;;;;;;;5.15;2.08;;;;;;;;;;4970476;28;20055;-71
2022/02/12 13:26:20;;;;;;;4.88;1.83;;;;;;;;;;4970492;28;20059;-71
2022/02/12 13:28:51;;;;;;;6.03;1.88;;;;;;;;;;4938309;28;20072;-72
2022/02/12 13:31:26;;;;;;;3.83;1.80;;;;;;;;;;4970267;28;20050;-71
2022/02/12 13:34:02;;;;;;;5.15;2.13;;;;;;;;;;4973439;28;20062;-71
2022/02/12 13:36:48;;;;;;;5.47;1.70;;;;;;;;;;4989877;28;20194;-72
2022/02/12 13:39:20;;;;;;;5.07;2.00;;;;;;;;;;4957379;28;20602;-72
2022/02/12 13:41:59;;;;;;;6.18;2.17;;;;;;;;;;4974552;28;20073;-72
2022/02/12 13:44:36;;;;;;;7.75;1.90;;;;;;;;;;4956821;28;20086;-73
2022/02/12 13:47:08;;;;;;;3.13;1.65;;;;;;;;;;4990046;28;20055;-71
2022/02/12 13:49:40;;;;;;;2.53;1.60;;;;;;;;;;4989728;28;20050;-72
2022/02/12 13:52:11;;;;;;;3.50;2.03;;;;;;;;;;4956788;28;20054;-72
2022/02/12 13:54:41;;;;;;;4.63;1.60;;;;;;;;;;4989773;28;20053;-73
2022/02/12 13:57:13;;;;;;;4.63;1.65;;;;;;;;;;4934126;29;20097;-72
2022/02/12 13:59:43;;;;;;;;;;;;;;;;;;4968338;28;20065;-73
2022/02/12 14:02:15;;;;;;;2.55;1.45;;;;;;;;;;4954488;28;19929;-73
2022/02/12 14:04:46;;;;;;;4.03;2.08;;;;;;;;;;4970085;28;20051;-72
2022/02/12 14:07:16;;;;;;;5.45;1.70;;;;;;;;;;4934014;29;20063;-72
2022/02/12 14:09:46;;;;;;;4.43;1.52;;;;;;;;;;4950742;29;20063;-72
2022/02/12 14:12:20;;;;;;;2.70;1.27;;;;;;;;;;4887816;29;20094;-69
2022/02/12 14:14:51;;;;;;;2.60;1.13;;;;;;;;;;4918864;29;20058;-73
2022/02/12 14:17:21;;;;;;;3.42;1.52;;;;;;;;;;4950352;29;20427;-72
2022/02/12 14:19:52;;;;;;;4.13;2.00;;;;;;;;;;4950685;29;20058;-73
2022/02/12 14:22:23;;;;;;;4.15;1.40;;;;;;;;;;4918322;29;20051;-72
2022/02/12 14:24:54;;;;;;;2.63;1.52;;;;;;;;;;4931073;29;20062;-73
2022/02/12 14:27:24;;;;;;;2.90;1.25;;;;;;;;;;4897716;29;20052;-71
2022/02/12 14:29:54;;;;;;;3.45;1.40;;;;;;;;;;4930805;29;20070;-72
2022/02/12 14:32:24;;;;;;;4.80;1.50;;;;;;;;;;4931039;29;20066;-73
2022/02/12 14:34:55;;;;;;;2.42;1.25;;;;;;;;;;4915364;29;20066;-72
2022/02/12 14:37:26;;;;;;;4.90;1.27;;;;;;;;;;4930619;29;20067;-72
2022/02/12 14:39:56;;;;;;;4.80;1.40;;;;;;;;;;4931163;29;20059;-73
2022/02/12 14:42:26;;;;;;;3.17;1.40;;;;;;;;;;4930792;29;20424;-72
2022/02/12 14:44:56;;;;;;;7.72;1.70;;;;;;;;;;4939898;29;20066;-69
2022/02/12 14:47:27;;;;;;;8.70;1.73;;;;;;;;;;4949935;29;20050;-73
2022/02/12 14:49:57;;;;;;;4.20;1.08;;;;;;;;;;4933889;28;20541;-69
2022/02/12 14:52:28;;;;;;;5.28;1.33;;;;;;;;;;4911565;29;20452;-72
2022/02/12 14:54:58;;;;;;;2.35;1.17;;;;;;;;;;4912062;29;20509;-71
2022/02/12 14:57:28;;;;;;;3.00;1.30;;;;;;;;;;4911393;29;20072;-69
2022/02/12 14:59:59;;;;;;;1.90;1.08;;;;;;;;;;4895457;29;20067;-70
2022/02/12 15:02:30;;;;;;;2.95;1.42;;;;;;;;;;4929977;28;20059;-70
2022/02/12 15:05:00;;;;;;;3.03;1.30;;;;;;;;;;4926594;28;20054;-70
2022/02/12 15:07:33;;;;;;;3.15;1.40;;;;;;;;;;4953311;28;20082;-71
2022/02/12 15:10:08;;;;;;;6.45;1.80;;;;;;;;;;4969419;28;20054;-67
2022/02/12 15:12:38;;;;;;;4.10;1.65;;;;;;;;;;4952967;28;20065;-68
2022/02/12 15:15:12;;;;;;;3.15;1.10;;;;;;;;;;4968719;28;20055;-70
2022/02/12 15:17:42;;;;;;;9.38;1.38;;;;;;;;;;4953495;28;20067;-70
2022/02/12 15:20:13;;;;;;;4.75;1.30;;;;;;;;;;4968705;28;20059;-68